createdAt,value
2023-11-15T00:01:52.953Z,97896.00
2023-11-15T00:04:50.329Z,97881.80
2023-11-15T00:07:47.963Z,97896.00
2023-11-15T00:10:45.365Z,97898.40
2023-11-15T00:13:43.024Z,97905.80
2023-11-15T00:16:40.457Z,97919.40
2023-11-15T00:19:38.098Z,97929.80
2023-11-15T00:22:36.532Z,97905.60
2023-11-15T00:25:34.568Z,97906.40
2023-11-15T00:28:32.010Z,97905.40
2023-11-15T00:31:30.292Z,97920.20
2023-11-15T00:34:27.719Z,97905.00
2023-11-15T00:37:25.419Z,97912.60
2023-11-15T00:40:23.172Z,97905.00
2023-11-15T00:43:21.084Z,97899.80
2023-11-15T00:46:18.741Z,97894.40
2023-11-15T00:49:16.485Z,97898.20
2023-11-15T00:52:15.383Z,97894.20
2023-11-15T00:55:13.497Z,97907.80
2023-11-15T00:58:11.540Z,97901.80
2023-11-15T01:01:12.699Z,97894.60
2023-11-15T01:04:10.446Z,97910.20
2023-11-15T01:07:08.627Z,97925.20
2023-11-15T01:10:07.347Z,97921.80
2023-11-15T01:13:05.383Z,97924.00
2023-11-15T01:16:03.177Z,97911.20
2023-11-15T01:19:00.799Z,97912.80
2023-11-15T01:21:58.786Z,97907.00
2023-11-15T01:24:56.593Z,97914.60
2023-11-15T01:27:54.086Z,97898.00
2023-11-15T01:30:51.816Z,97918.60
2023-11-15T01:33:49.206Z,97912.00
2023-11-15T01:36:46.996Z,97918.60
2023-11-15T01:39:44.408Z,97908.80
2023-11-15T01:42:41.982Z,97916.00
2023-11-15T01:45:39.367Z,97921.20
2023-11-15T01:48:37.898Z,97896.80
2023-11-15T01:51:35.292Z,97881.80
2023-11-15T01:54:33.003Z,97885.80
2023-11-15T01:57:30.791Z,97879.20
2023-11-15T02:00:28.653Z,97891.40
2023-11-15T02:03:26.133Z,97888.80
2023-11-15T02:06:24.083Z,97889.40
2023-11-15T02:09:21.972Z,97901.60
2023-11-15T02:12:19.410Z,97906.80
2023-11-15T02:15:17.693Z,97901.80
2023-11-15T02:18:15.377Z,97885.80
2023-11-15T02:21:12.794Z,97891.60
2023-11-15T02:24:10.475Z,97884.80
2023-11-15T02:27:08.994Z,97888.20
2023-11-15T02:30:06.762Z,97896.80
2023-11-15T02:33:04.224Z,97891.20
2023-11-15T02:36:02.101Z,97898.40
2023-11-15T02:38:59.518Z,97882.00
2023-11-15T02:41:57.141Z,97883.20
2023-11-15T02:44:54.768Z,97904.80
2023-11-15T02:47:52.343Z,97895.00
2023-11-15T02:50:50.193Z,97911.80
2023-11-15T02:53:47.874Z,97917.60
2023-11-15T02:56:45.719Z,97907.60
2023-11-15T02:59:43.168Z,97904.20
2023-11-15T03:02:41.086Z,97900.20
2023-11-15T03:05:39.184Z,97893.20
2023-11-15T03:08:37.005Z,97898.40
2023-11-15T03:11:34.540Z,97909.00
2023-11-15T03:14:32.368Z,97895.60
2023-11-15T03:17:29.919Z,97913.20
2023-11-15T03:20:27.782Z,97916.80
2023-11-15T03:23:26.016Z,97915.80
2023-11-15T03:26:23.644Z,97918.00
2023-11-15T03:29:21.037Z,97928.20
2023-11-15T03:32:18.710Z,97912.00
2023-11-15T03:35:16.292Z,97916.80
2023-11-15T03:38:14.037Z,97914.80
2023-11-15T03:41:12.083Z,97925.00
2023-11-15T03:44:09.741Z,97931.40
2023-11-15T03:47:07.129Z,97927.80
2023-11-15T03:50:05.810Z,97919.00
2023-11-15T03:53:04.189Z,97914.80
2023-11-15T03:56:01.560Z,97904.40
2023-11-15T03:58:59.536Z,97906.20
2023-11-15T04:01:57.984Z,97921.80
2023-11-15T04:04:56.025Z,97922.40
2023-11-15T04:07:53.652Z,97939.60
2023-11-15T04:10:51.648Z,97939.40
2023-11-15T04:13:49.328Z,97931.80
2023-11-15T04:16:47.064Z,97913.60
2023-11-15T04:19:44.451Z,97918.00
2023-11-15T04:22:42.235Z,97916.00
2023-11-15T04:25:41.103Z,97923.40
2023-11-15T04:28:38.751Z,97917.20
2023-11-15T04:31:36.767Z,97930.00
2023-11-15T04:34:34.626Z,97921.60
2023-11-15T04:37:32.052Z,97929.40
2023-11-15T04:40:29.817Z,97915.00
2023-11-15T04:43:27.597Z,97937.60
2023-11-15T04:46:25.020Z,97953.00
2023-11-15T04:49:22.692Z,97948.60
2023-11-15T04:52:20.099Z,97971.40
2023-11-15T04:55:17.842Z,97952.40
2023-11-15T04:58:16.247Z,97951.40
2023-11-15T05:01:15.335Z,97940.40
2023-11-15T05:04:12.878Z,97961.40
2023-11-15T05:07:12.397Z,97955.80
2023-11-15T05:10:11.264Z,97963.80
2023-11-15T05:13:09.354Z,97973.40
2023-11-15T05:16:06.969Z,97970.00
2023-11-15T05:19:04.752Z,97964.00
2023-11-15T05:22:03.303Z,97972.00
2023-11-15T05:25:00.761Z,97981.20
2023-11-15T05:27:58.437Z,97984.60
2023-11-15T05:30:56.056Z,98001.20
2023-11-15T05:33:53.615Z,97992.40
2023-11-15T05:36:51.078Z,98005.00
2023-11-15T05:39:48.853Z,97993.20
2023-11-15T05:42:46.438Z,97998.20
2023-11-15T05:45:44.202Z,98007.40
2023-11-15T05:48:41.606Z,98012.20
2023-11-15T05:51:41.757Z,98021.80
2023-11-15T05:54:39.201Z,98023.00
2023-11-15T05:57:36.919Z,98009.00
2023-11-15T06:00:34.389Z,98023.20
2023-11-15T06:03:32.398Z,98019.80
2023-11-15T06:06:29.893Z,98038.20
2023-11-15T06:09:27.726Z,98022.60
2023-11-15T06:12:25.113Z,98041.40
2023-11-15T06:15:22.670Z,98053.40
2023-11-15T06:18:20.379Z,98054.40
2023-11-15T06:21:19.541Z,98054.40
2023-11-15T06:24:17.077Z,98057.20
2023-11-15T06:27:14.614Z,98092.20
2023-11-15T06:30:13.887Z,98070.80
2023-11-15T06:33:11.568Z,98096.60
2023-11-15T06:36:09.751Z,98097.40
2023-11-15T06:39:10.094Z,98099.40
2023-11-15T06:42:09.371Z,98109.80
2023-11-15T06:45:08.299Z,98126.40
2023-11-15T06:48:08.332Z,98113.40
2023-11-15T06:51:06.323Z,98118.60
2023-11-15T06:54:04.109Z,98135.40
2023-11-15T06:57:01.757Z,98145.40
2023-11-15T06:59:59.573Z,98160.40
2023-11-15T07:02:57.597Z,98169.40
2023-11-15T07:05:55.143Z,98173.00
2023-11-15T07:08:52.896Z,98181.00
2023-11-15T07:11:50.658Z,98193.20
2023-11-15T07:14:49.451Z,98189.40
2023-11-15T07:17:47.591Z,98210.00
2023-11-15T07:20:45.939Z,98208.40
2023-11-15T07:23:43.745Z,98214.60
2023-11-15T07:26:41.165Z,98235.20
2023-11-15T07:29:39.514Z,98220.20
2023-11-15T07:32:37.312Z,98248.80
2023-11-15T07:35:37.680Z,98238.00
2023-11-15T07:38:36.307Z,98244.80
2023-11-15T07:41:36.096Z,98259.20
2023-11-15T07:44:33.961Z,98275.00
2023-11-15T07:47:35.751Z,98290.20
2023-11-15T07:50:33.662Z,98276.00
2023-11-15T07:53:33.508Z,98281.40
2023-11-15T07:56:31.279Z,98283.80
2023-11-15T07:59:28.671Z,98297.60
2023-11-15T08:02:26.384Z,98316.80
2023-11-15T08:05:23.842Z,98314.80
2023-11-15T08:08:21.535Z,98335.00
2023-11-15T08:11:18.921Z,98345.00
2023-11-15T08:14:16.711Z,98352.40
2023-11-15T08:17:14.231Z,98366.80
2023-11-15T08:20:11.873Z,98362.60
2023-11-15T08:23:10.539Z,98376.20
2023-11-15T08:26:08.942Z,98391.20
2023-11-15T08:29:06.676Z,98390.20
2023-11-15T08:32:04.391Z,98396.40
2023-11-15T08:35:02.015Z,98397.40
2023-11-15T08:37:59.671Z,98405.80
2023-11-15T08:40:57.152Z,98405.60
2023-11-15T08:43:54.839Z,98400.00
2023-11-15T08:46:52.798Z,98421.40
2023-11-15T08:49:51.980Z,98426.20
2023-11-15T08:52:49.642Z,98422.80
2023-11-15T08:55:47.317Z,98423.40
2023-11-15T08:58:44.761Z,98426.80
2023-11-15T09:01:42.998Z,98430.40
2023-11-15T09:04:41.339Z,98430.40
2023-11-15T09:07:40.502Z,98426.60
2023-11-15T09:10:37.885Z,98422.40
2023-11-15T09:13:35.437Z,98421.20
2023-11-15T09:16:32.947Z,98427.60
2023-11-15T09:19:30.682Z,98416.20
2023-11-15T09:22:31.241Z,98428.80
2023-11-15T09:25:32.366Z,98421.80
2023-11-15T09:28:30.657Z,98432.20
2023-11-15T09:31:28.091Z,98421.00
2023-11-15T09:34:27.013Z,98430.40
2023-11-15T09:37:24.564Z,98424.00
2023-11-15T09:40:22.459Z,98429.80
2023-11-15T09:43:21.227Z,98425.40
2023-11-15T09:46:19.240Z,98431.40
2023-11-15T09:49:17.455Z,98432.00
2023-11-15T09:52:16.688Z,98421.60
2023-11-15T09:55:14.277Z,98429.40
2023-11-15T09:58:13.341Z,98428.20
2023-11-15T10:01:11.045Z,98427.40
2023-11-15T10:04:08.985Z,98433.60
2023-11-15T10:07:08.627Z,98438.60
2023-11-15T10:10:07.179Z,98432.00
2023-11-15T10:13:05.417Z,98421.60
2023-11-15T10:16:03.966Z,98416.60
2023-11-15T10:19:02.035Z,98414.60
2023-11-15T10:21:59.633Z,98400.40
2023-11-15T10:24:57.337Z,98395.40
2023-11-15T10:27:54.879Z,98394.40
2023-11-15T10:30:52.638Z,98393.40
2023-11-15T10:33:50.882Z,98388.40
2023-11-15T10:36:50.122Z,98396.00
2023-11-15T10:39:49.541Z,98397.20
2023-11-15T10:42:51.793Z,98399.80
2023-11-15T10:45:51.635Z,98394.60
2023-11-15T10:48:51.099Z,98392.60
2023-11-15T10:51:50.223Z,98389.40
2023-11-15T10:54:47.874Z,98391.60
2023-11-15T10:57:47.850Z,98378.40
2023-11-15T11:00:47.227Z,98384.20
2023-11-15T11:03:45.779Z,98378.20
2023-11-15T11:06:50.279Z,98388.40
2023-11-15T11:09:47.849Z,98390.20
2023-11-15T11:12:46.213Z,98400.40
2023-11-15T11:15:43.885Z,98403.40
2023-11-15T11:18:41.521Z,98412.80
2023-11-15T11:21:40.969Z,98409.00
2023-11-15T11:24:39.832Z,98398.80
2023-11-15T11:27:38.323Z,98411.80
2023-11-15T11:30:35.998Z,98406.60
2023-11-15T11:33:34.108Z,98413.40
2023-11-15T11:36:31.657Z,98412.00
2023-11-15T11:39:30.691Z,98408.60
2023-11-15T11:42:28.356Z,98409.80
2023-11-15T11:45:26.121Z,98406.80
2023-11-15T11:48:23.765Z,98396.80
2023-11-15T11:51:21.676Z,98397.40
2023-11-15T11:54:20.256Z,98401.80
2023-11-15T11:57:17.744Z,98395.40
2023-11-15T12:00:19.597Z,98398.60
2023-11-15T12:03:19.462Z,98397.00
2023-11-15T12:06:19.932Z,98396.40
2023-11-15T12:09:17.789Z,98411.80
2023-11-15T12:12:15.613Z,98405.80
2023-11-15T12:15:14.815Z,98409.00
2023-11-15T12:18:12.427Z,98409.40
2023-11-15T12:21:11.316Z,98410.60
2023-11-15T12:24:11.433Z,98410.20
2023-11-15T12:27:09.363Z,98407.60
2023-11-15T12:30:08.577Z,98410.40
2023-11-15T12:33:06.329Z,98418.00
2023-11-15T12:36:04.218Z,98421.00
2023-11-15T12:39:02.230Z,98426.80
2023-11-15T12:42:02.697Z,98434.00
2023-11-15T12:45:01.162Z,98439.20
2023-11-15T12:47:59.012Z,98433.40
2023-11-15T12:50:57.815Z,98434.40
2023-11-15T12:53:55.848Z,98431.00
2023-11-15T12:56:56.627Z,98438.80
2023-11-15T12:59:54.466Z,98440.40
2023-11-15T13:02:52.262Z,98446.40
2023-11-15T13:05:50.328Z,98446.20
2023-11-15T13:08:50.721Z,98450.80
2023-11-15T13:11:50.556Z,98461.40
2023-11-15T13:14:47.997Z,98461.40
2023-11-15T13:17:45.946Z,98470.40
2023-11-15T13:20:43.954Z,98475.20
2023-11-15T13:23:42.161Z,98482.80
2023-11-15T13:26:41.748Z,98499.60
2023-11-15T13:29:40.546Z,98495.00
2023-11-15T13:32:38.026Z,98497.80
2023-11-15T13:35:35.955Z,98505.40
2023-11-15T13:38:34.323Z,98506.20
2023-11-15T13:41:32.299Z,98516.00
2023-11-15T13:44:29.710Z,98517.80
2023-11-15T13:47:29.619Z,98519.40
2023-11-15T13:50:27.145Z,98534.60
2023-11-15T13:53:25.084Z,98546.00
2023-11-15T13:56:22.968Z,98536.00
2023-11-15T13:59:21.971Z,98539.40
2023-11-15T14:02:19.523Z,98546.00
2023-11-15T14:05:19.332Z,98551.20
2023-11-15T14:08:19.424Z,98551.80
2023-11-15T14:11:18.180Z,98561.20
2023-11-15T14:14:15.657Z,98553.20
2023-11-15T14:17:13.604Z,98563.60
2023-11-15T14:20:12.603Z,98562.40
2023-11-15T14:23:14.123Z,98565.20
2023-11-15T14:26:15.561Z,98570.00
2023-11-15T14:29:14.244Z,98572.60
2023-11-15T14:32:17.616Z,98578.40
2023-11-15T14:35:15.037Z,98583.40
2023-11-15T14:38:13.764Z,98594.40
2023-11-15T14:41:11.629Z,98594.40
2023-11-15T14:44:09.518Z,98596.40
2023-11-15T14:47:10.256Z,98608.40
2023-11-15T14:50:11.622Z,98623.60
2023-11-15T14:53:20.163Z,98626.80
2023-11-15T14:56:18.112Z,98636.60
2023-11-15T14:59:17.161Z,98647.80
2023-11-15T15:02:15.133Z,98654.20
2023-11-15T15:05:13.298Z,98659.60
2023-11-15T15:08:13.403Z,98664.40
2023-11-15T15:11:10.883Z,98674.80
2023-11-15T15:14:08.789Z,98680.40
2023-11-15T15:17:14.645Z,98684.20
2023-11-15T15:20:20.365Z,98687.60
2023-11-15T15:23:18.695Z,98689.80
2023-11-15T15:26:21.021Z,98686.80
2023-11-15T15:29:27.177Z,98699.60
2023-11-15T15:32:25.362Z,98698.60
2023-11-15T15:35:23.268Z,98699.40
2023-11-15T15:38:20.754Z,98702.80
2023-11-15T15:41:19.251Z,98701.80
2023-11-15T15:44:16.643Z,98707.60
2023-11-15T15:47:14.425Z,98719.20
2023-11-15T15:50:12.256Z,98727.60
2023-11-15T15:53:10.977Z,98740.40
2023-11-15T15:56:08.848Z,98740.60
2023-11-15T15:59:06.237Z,98749.20
2023-11-15T16:02:04.139Z,98742.20
2023-11-15T16:05:01.545Z,98748.00
2023-11-15T16:07:59.410Z,98745.80
2023-11-15T16:10:57.698Z,98749.60
2023-11-15T16:13:55.161Z,98756.40
2023-11-15T16:16:53.030Z,98762.80
2023-11-15T16:19:50.915Z,98771.00
2023-11-15T16:22:48.382Z,98783.40
2023-11-15T16:25:46.532Z,98797.40
2023-11-15T16:28:43.994Z,98794.80
2023-11-15T16:31:42.180Z,98804.00
2023-11-15T16:34:39.625Z,98806.80
2023-11-15T16:37:39.995Z,98810.80
2023-11-15T16:40:40.386Z,98818.60
2023-11-15T16:43:38.258Z,98817.60
2023-11-15T16:46:35.776Z,98822.00
2023-11-15T16:49:33.688Z,98819.80
2023-11-15T16:52:33.084Z,98821.20
2023-11-15T16:55:31.561Z,98821.40
2023-11-15T16:58:28.926Z,98828.00
2023-11-15T17:01:27.248Z,98832.60
2023-11-15T17:04:24.721Z,98829.00
2023-11-15T17:07:22.999Z,98826.20
2023-11-15T17:10:20.579Z,98824.00
2023-11-15T17:13:19.279Z,98832.00
2023-11-15T17:16:17.360Z,98843.60
2023-11-15T17:19:16.059Z,98848.40
2023-11-15T17:22:15.079Z,98856.80
2023-11-15T17:25:19.654Z,98861.40
2023-11-15T17:28:19.696Z,98868.40
2023-11-15T17:31:20.266Z,98870.00
2023-11-15T17:34:19.204Z,98878.80
2023-11-15T17:37:17.130Z,98890.20
2023-11-15T17:40:16.527Z,98892.80
2023-11-15T17:43:15.343Z,98896.20
2023-11-15T17:46:13.995Z,98894.80
2023-11-15T17:49:12.335Z,98897.00
2023-11-15T17:52:11.255Z,98895.80
2023-11-15T17:55:09.406Z,98889.40
2023-11-15T17:58:08.763Z,98894.80
2023-11-15T18:01:07.156Z,98897.40
2023-11-15T18:04:05.386Z,98899.80
2023-11-15T18:07:03.043Z,98902.40
2023-11-15T18:10:00.943Z,98894.80
2023-11-15T18:12:58.723Z,98901.40
2023-11-15T18:15:56.958Z,98907.20
2023-11-15T18:18:56.309Z,98907.40
2023-11-15T18:21:54.355Z,98905.60
2023-11-15T18:24:52.393Z,98911.00
2023-11-15T18:27:50.523Z,98904.60
2023-11-15T18:30:48.290Z,98908.60
2023-11-15T18:33:48.612Z,98914.60
2023-11-15T18:36:48.817Z,98909.00
2023-11-15T18:39:48.562Z,98910.80
2023-11-15T18:42:47.893Z,98913.40
2023-11-15T18:45:47.856Z,98907.00
2023-11-15T18:48:46.366Z,98910.40
2023-11-15T18:51:45.037Z,98911.20
2023-11-15T18:54:43.666Z,98907.20
2023-11-15T18:57:43.230Z,98913.20
2023-11-15T19:00:42.932Z,98912.20
2023-11-15T19:03:43.117Z,98910.60
2023-11-15T19:06:41.986Z,98906.00
2023-11-15T19:09:45.095Z,98908.80
2023-11-15T19:12:44.961Z,98912.20
2023-11-15T19:15:45.363Z,98909.00
2023-11-15T19:18:45.481Z,98912.60
2023-11-15T19:21:45.444Z,98915.40
2023-11-15T19:24:45.991Z,98913.20
2023-11-15T19:27:46.833Z,98917.60
2023-11-15T19:30:46.623Z,98909.80
2023-11-15T19:33:46.957Z,98910.60
2023-11-15T19:36:46.757Z,98909.00
2023-11-15T19:39:46.591Z,98911.80
2023-11-15T19:42:47.142Z,98916.40
2023-11-15T19:45:47.525Z,98915.40
2023-11-15T19:48:47.520Z,98919.20
2023-11-15T19:51:48.449Z,98925.00
2023-11-15T19:54:48.642Z,98923.80
2023-11-15T19:57:49.095Z,98922.80
2023-11-15T20:00:49.597Z,98929.60
2023-11-15T20:03:53.613Z,98936.80
2023-11-15T20:06:53.860Z,98935.40
2023-11-15T20:09:55.419Z,98941.60
2023-11-15T20:12:54.828Z,98941.60
2023-11-15T20:15:55.879Z,98944.00
2023-11-15T20:18:55.165Z,98942.80
2023-11-15T20:21:55.557Z,98940.80
2023-11-15T20:24:55.429Z,98945.20
2023-11-15T20:27:55.460Z,98947.60
2023-11-15T20:30:55.653Z,98952.00
2023-11-15T20:33:55.494Z,98949.40
2023-11-15T20:36:55.807Z,98949.40
2023-11-15T20:39:55.261Z,98955.60
2023-11-15T20:42:54.780Z,98952.00
2023-11-15T20:46:05.133Z,98953.40
2023-11-15T20:49:12.205Z,98958.40
2023-11-15T20:52:11.869Z,98959.80
2023-11-15T20:55:11.066Z,98957.20
2023-11-15T20:58:08.680Z,98956.40
2023-11-15T21:01:07.734Z,98964.00
2023-11-15T21:04:09.139Z,98969.00
2023-11-15T21:07:06.765Z,98969.20
2023-11-15T21:10:05.476Z,98972.00
2023-11-15T21:13:04.319Z,98971.40
2023-11-15T21:16:04.500Z,98977.80
2023-11-15T21:19:01.869Z,98972.60
2023-11-15T21:21:59.555Z,98976.20
2023-11-15T21:24:56.967Z,98979.60
2023-11-15T21:27:56.029Z,98987.00
2023-11-15T21:30:53.579Z,98977.60
2023-11-15T21:33:51.560Z,98984.80
2023-11-15T21:36:49.150Z,98989.60
2023-11-15T21:39:46.606Z,98996.00
2023-11-15T21:42:45.813Z,98992.20
2023-11-15T21:45:43.332Z,99000.20
2023-11-15T21:48:41.362Z,98997.80
2023-11-15T21:51:38.832Z,98990.60
2023-11-15T21:54:36.519Z,98996.20
2023-11-15T21:57:34.014Z,98994.80
2023-11-15T22:00:32.404Z,99006.40
2023-11-15T22:03:30.164Z,99004.20
2023-11-15T22:06:27.970Z,99015.00
2023-11-15T22:09:25.544Z,99016.80
2023-11-15T22:12:23.589Z,99014.20
2023-11-15T22:15:21.409Z,99018.80
2023-11-15T22:18:19.752Z,99017.00
2023-11-15T22:21:17.218Z,99029.80
2023-11-15T22:24:14.839Z,99027.20
2023-11-15T22:27:12.252Z,99028.20
2023-11-15T22:30:11.266Z,99031.80
2023-11-15T22:33:08.901Z,99031.60
2023-11-15T22:36:06.650Z,99035.40
2023-11-15T22:39:04.178Z,99028.00
2023-11-15T22:42:02.373Z,99034.00
2023-11-15T22:44:59.813Z,99038.40
2023-11-15T22:47:57.350Z,99033.20
2023-11-15T22:50:54.848Z,99029.60
2023-11-15T22:53:54.539Z,99031.20
2023-11-15T22:56:52.742Z,99030.20
2023-11-15T22:59:52.566Z,99029.00
2023-11-15T23:02:50.750Z,99028.00
2023-11-15T23:05:50.229Z,99022.60
2023-11-15T23:08:47.660Z,99016.60
2023-11-15T23:11:45.210Z,99013.60
2023-11-15T23:14:42.597Z,99016.00
2023-11-15T23:17:40.309Z,99012.60
2023-11-15T23:20:41.466Z,99013.20
2023-11-15T23:23:39.189Z,99004.00
2023-11-15T23:26:36.961Z,99008.00
2023-11-15T23:29:34.649Z,99006.20
2023-11-15T23:32:32.859Z,99002.80
2023-11-15T23:35:30.563Z,99011.40
2023-11-15T23:38:30.547Z,99012.00
2023-11-15T23:41:29.626Z,99012.80
2023-11-15T23:44:28.445Z,99010.20
2023-11-15T23:47:26.224Z,99015.80
2023-11-15T23:50:24.284Z,99018.60
2023-11-15T23:53:23.007Z,99015.00
2023-11-15T23:56:20.435Z,99001.00
2023-11-15T23:59:18.413Z,99003.20
